CheckWX is a tool to help pilots better visualize weather data.  It is not intended as a substitute for an official pre-flight weather briefing.

16:52:21 UTC

KTPH TAF
Tonopah Airport
Tonopah, Nevada, USA
KTPH 091720Z 0918/1018 VRB05KT P6SM SKC FM092000 22007G17KT P6SM SKC FM100100 23010KT P6SM SKC FM100500 36006KT P6SM SKC

Jul-9@
18:00 UTC

Jul-9 @ 18:00 UTC

Jul-9@
20:00 UTC

Jul-9 @ 20:00 UTC

TAF KTPH 091720Z 0918/1018 VRB05KT P6SM SKC

Expired

Wind
  • Variable at 5 KTS
Cloud Levels
  • Clear skies

Jul-9@
20:00 UTC

Jul-9 @ 20:00 UTC

Jul-10@
01:00 UTC

Jul-10 @ 01:00 UTC

FM092000 22007G17KT P6SM SKC

Expired

Wind
  • 220° at 7 KTS
  • {Gusting to 17 KTS
Cloud Levels
  • Clear skies

Jul-10@
01:00 UTC

Jul-10 @ 01:00 UTC

Jul-10@
05:00 UTC

Jul-10 @ 05:00 UTC

FM100100 23010KT P6SM SKC

Expired

Wind
  • 230° at 10 KTS
Cloud Levels
  • Clear skies

Jul-10@
05:00 UTC

Jul-10 @ 05:00 UTC

Jul-10@
18:00 UTC

Jul-10 @ 18:00 UTC

FM100500 36006KT P6SM SKC

From

From Standard forecast or significant change

Wind
  • 360° at 6 KTS
Cloud Levels
  • Clear skies